sensor_id;sensor_type;location;lat;lon;timestamp;P1;durP1;ratioP1;P2;durP2;ratioP2
15665;SDS011;20725;51.196;3.510;2024-02-26T00:00:33;3.30;;;3.00;;
15665;SDS011;20725;51.196;3.510;2024-02-26T00:03:02;3.30;;;3.00;;
15665;SDS011;20725;51.196;3.510;2024-02-26T00:05:29;5.00;;;3.13;;
15665;SDS011;20725;51.196;3.510;2024-02-26T00:07:57;3.80;;;3.47;;
15665;SDS011;20725;51.196;3.510;2024-02-26T00:10:24;4.07;;;3.63;;
15665;SDS011;20725;51.196;3.510;2024-02-26T00:12:51;3.63;;;3.37;;
15665;SDS011;20725;51.196;3.510;2024-02-26T00:15:19;8.43;;;3.87;;
15665;SDS011;20725;51.196;3.510;2024-02-26T00:17:46;4.17;;;3.60;;
15665;SDS011;20725;51.196;3.510;2024-02-26T00:20:15;4.37;;;3.73;;
15665;SDS011;20725;51.196;3.510;2024-02-26T00:22:42;3.93;;;3.43;;
15665;SDS011;20725;51.196;3.510;2024-02-26T00:25:09;4.10;;;3.70;;
15665;SDS011;20725;51.196;3.510;2024-02-26T00:27:37;6.37;;;4.67;;
15665;SDS011;20725;51.196;3.510;2024-02-26T00:30:06;4.80;;;4.40;;
15665;SDS011;20725;51.196;3.510;2024-02-26T00:32:33;5.13;;;4.70;;
15665;SDS011;20725;51.196;3.510;2024-02-26T00:35:00;5.40;;;4.90;;
15665;SDS011;20725;51.196;3.510;2024-02-26T00:37:29;4.43;;;4.03;;
15665;SDS011;20725;51.196;3.510;2024-02-26T00:39:56;7.17;;;4.83;;
15665;SDS011;20725;51.196;3.510;2024-02-26T00:42:23;5.93;;;5.10;;
15665;SDS011;20725;51.196;3.510;2024-02-26T00:44:51;5.20;;;4.67;;
15665;SDS011;20725;51.196;3.510;2024-02-26T00:47:18;5.60;;;4.57;;
15665;SDS011;20725;51.196;3.510;2024-02-26T00:49:45;5.30;;;4.53;;
15665;SDS011;20725;51.196;3.510;2024-02-26T00:52:12;5.50;;;5.00;;
15665;SDS011;20725;51.196;3.510;2024-02-26T00:54:41;6.70;;;4.67;;
15665;SDS011;20725;51.196;3.510;2024-02-26T00:57:08;4.60;;;4.20;;
15665;SDS011;20725;51.196;3.510;2024-02-26T00:59:35;6.07;;;4.80;;
15665;SDS011;20725;51.196;3.510;2024-02-26T01:02:02;7.77;;;4.80;;
15665;SDS011;20725;51.196;3.510;2024-02-26T01:04:31;6.60;;;4.80;;
15665;SDS011;20725;51.196;3.510;2024-02-26T01:06:59;8.43;;;4.43;;
15665;SDS011;20725;51.196;3.510;2024-02-26T01:09:26;4.83;;;4.43;;
15665;SDS011;20725;51.196;3.510;2024-02-26T01:11:55;5.63;;;4.43;;
15665;SDS011;20725;51.196;3.510;2024-02-26T01:14:22;5.00;;;4.60;;
15665;SDS011;20725;51.196;3.510;2024-02-26T01:16:49;5.73;;;4.23;;
15665;SDS011;20725;51.196;3.510;2024-02-26T01:19:16;6.47;;;5.33;;
15665;SDS011;20725;51.196;3.510;2024-02-26T01:21:44;6.10;;;5.20;;
15665;SDS011;20725;51.196;3.510;2024-02-26T01:24:11;6.00;;;5.50;;
15665;SDS011;20725;51.196;3.510;2024-02-26T01:26:38;6.90;;;5.30;;
15665;SDS011;20725;51.196;3.510;2024-02-26T01:29:07;6.67;;;5.23;;
15665;SDS011;20725;51.196;3.510;2024-02-26T01:31:34;5.30;;;4.77;;
15665;SDS011;20725;51.196;3.510;2024-02-26T01:34:01;7.40;;;5.10;;
15665;SDS011;20725;51.196;3.510;2024-02-26T01:36:28;6.17;;;5.23;;
15665;SDS011;20725;51.196;3.510;2024-02-26T01:38:55;6.20;;;5.33;;
15665;SDS011;20725;51.196;3.510;2024-02-26T01:41:23;5.33;;;4.83;;
15665;SDS011;20725;51.196;3.510;2024-02-26T01:43:50;5.60;;;5.03;;
15665;SDS011;20725;51.196;3.510;2024-02-26T01:46:18;6.10;;;5.53;;
15665;SDS011;20725;51.196;3.510;2024-02-26T01:48:46;6.50;;;5.20;;
15665;SDS011;20725;51.196;3.510;2024-02-26T01:51:15;5.67;;;5.13;;
15665;SDS011;20725;51.196;3.510;2024-02-26T01:53:43;6.20;;;5.10;;
15665;SDS011;20725;51.196;3.510;2024-02-26T01:56:10;5.77;;;5.23;;
15665;SDS011;20725;51.196;3.510;2024-02-26T01:58:37;8.50;;;4.97;;
15665;SDS011;20725;51.196;3.510;2024-02-26T02:01:05;7.43;;;5.43;;
15665;SDS011;20725;51.196;3.510;2024-02-26T02:03:34;5.80;;;5.23;;
15665;SDS011;20725;51.196;3.510;2024-02-26T02:06:01;6.47;;;5.10;;
15665;SDS011;20725;51.196;3.510;2024-02-26T02:08:29;6.47;;;5.57;;
15665;SDS011;20725;51.196;3.510;2024-02-26T02:10:56;8.03;;;5.43;;
15665;SDS011;20725;51.196;3.510;2024-02-26T02:13:23;7.47;;;6.03;;
15665;SDS011;20725;51.196;3.510;2024-02-26T02:15:51;9.00;;;5.87;;
15665;SDS011;20725;51.196;3.510;2024-02-26T02:18:18;8.70;;;5.40;;
15665;SDS011;20725;51.196;3.510;2024-02-26T02:20:47;6.13;;;5.40;;
15665;SDS011;20725;51.196;3.510;2024-02-26T02:23:14;6.60;;;5.53;;
15665;SDS011;20725;51.196;3.510;2024-02-26T02:25:41;6.37;;;5.77;;
15665;SDS011;20725;51.196;3.510;2024-02-26T02:28:09;7.17;;;5.93;;
15665;SDS011;20725;51.196;3.510;2024-02-26T02:30:36;6.60;;;6.00;;
15665;SDS011;20725;51.196;3.510;2024-02-26T02:33:04;6.07;;;5.57;;
15665;SDS011;20725;51.196;3.510;2024-02-26T02:35:32;6.37;;;5.50;;
15665;SDS011;20725;51.196;3.510;2024-02-26T02:38:00;7.57;;;6.20;;
15665;SDS011;20725;51.196;3.510;2024-02-26T02:40:27;6.00;;;5.37;;
15665;SDS011;20725;51.196;3.510;2024-02-26T02:42:55;6.50;;;5.57;;
15665;SDS011;20725;51.196;3.510;2024-02-26T02:45:22;7.97;;;5.40;;
15665;SDS011;20725;51.196;3.510;2024-02-26T02:47:49;6.10;;;5.50;;
15665;SDS011;20725;51.196;3.510;2024-02-26T02:50:16;9.13;;;5.30;;
15665;SDS011;20725;51.196;3.510;2024-02-26T02:52:43;6.13;;;5.53;;
15665;SDS011;20725;51.196;3.510;2024-02-26T02:55:12;7.67;;;5.83;;
15665;SDS011;20725;51.196;3.510;2024-02-26T02:57:39;6.00;;;5.50;;
15665;SDS011;20725;51.196;3.510;2024-02-26T03:00:08;7.87;;;5.83;;
15665;SDS011;20725;51.196;3.510;2024-02-26T03:02:35;6.73;;;6.13;;
15665;SDS011;20725;51.196;3.510;2024-02-26T03:05:02;6.77;;;6.07;;
15665;SDS011;20725;51.196;3.510;2024-02-26T03:07:30;7.20;;;6.37;;
15665;SDS011;20725;51.196;3.510;2024-02-26T03:09:57;6.93;;;6.33;;
15665;SDS011;20725;51.196;3.510;2024-02-26T03:12:25;6.97;;;6.33;;
15665;SDS011;20725;51.196;3.510;2024-02-26T03:14:53;7.37;;;6.53;;
15665;SDS011;20725;51.196;3.510;2024-02-26T03:17:20;7.97;;;7.27;;
15665;SDS011;20725;51.196;3.510;2024-02-26T03:19:49;7.10;;;6.50;;
15665;SDS011;20725;51.196;3.510;2024-02-26T03:22:18;8.30;;;7.40;;
15665;SDS011;20725;51.196;3.510;2024-02-26T03:24:46;8.57;;;7.77;;
15665;SDS011;20725;51.196;3.510;2024-02-26T03:27:13;8.20;;;7.50;;
15665;SDS011;20725;51.196;3.510;2024-02-26T03:29:41;8.50;;;7.70;;
15665;SDS011;20725;51.196;3.510;2024-02-26T03:32:09;8.77;;;7.97;;
15665;SDS011;20725;51.196;3.510;2024-02-26T03:34:36;7.77;;;7.03;;
15665;SDS011;20725;51.196;3.510;2024-02-26T03:37:04;9.97;;;7.47;;
15665;SDS011;20725;51.196;3.510;2024-02-26T03:39:32;7.23;;;6.63;;
15665;SDS011;20725;51.196;3.510;2024-02-26T03:41:59;7.30;;;6.67;;
15665;SDS011;20725;51.196;3.510;2024-02-26T03:44:27;8.30;;;6.67;;
15665;SDS011;20725;51.196;3.510;2024-02-26T03:46:55;6.50;;;5.90;;
15665;SDS011;20725;51.196;3.510;2024-02-26T03:49:23;6.90;;;5.53;;
15665;SDS011;20725;51.196;3.510;2024-02-26T03:51:50;6.20;;;5.80;;
15665;SDS011;20725;51.196;3.510;2024-02-26T03:54:17;5.80;;;5.30;;
15665;SDS011;20725;51.196;3.510;2024-02-26T03:56:44;5.23;;;4.80;;
15665;SDS011;20725;51.196;3.510;2024-02-26T03:59:11;5.10;;;4.60;;
15665;SDS011;20725;51.196;3.510;2024-02-26T04:01:39;5.83;;;5.27;;
15665;SDS011;20725;51.196;3.510;2024-02-26T04:04:07;5.37;;;4.97;;
15665;SDS011;20725;51.196;3.510;2024-02-26T04:06:35;5.43;;;4.93;;
15665;SDS011;20725;51.196;3.510;2024-02-26T04:09:02;6.43;;;5.83;;
15665;SDS011;20725;51.196;3.510;2024-02-26T04:11:29;5.93;;;5.43;;
15665;SDS011;20725;51.196;3.510;2024-02-26T04:13:57;6.67;;;5.93;;
15665;SDS011;20725;51.196;3.510;2024-02-26T04:16:24;6.60;;;6.00;;
15665;SDS011;20725;51.196;3.510;2024-02-26T04:18:51;6.37;;;5.77;;
15665;SDS011;20725;51.196;3.510;2024-02-26T04:21:21;7.07;;;6.37;;
15665;SDS011;20725;51.196;3.510;2024-02-26T04:23:48;6.93;;;6.33;;
15665;SDS011;20725;51.196;3.510;2024-02-26T04:26:15;6.60;;;5.80;;
15665;SDS011;20725;51.196;3.510;2024-02-26T04:28:42;6.23;;;5.50;;
15665;SDS011;20725;51.196;3.510;2024-02-26T04:31:09;6.33;;;5.73;;
15665;SDS011;20725;51.196;3.510;2024-02-26T04:33:36;7.30;;;5.60;;
15665;SDS011;20725;51.196;3.510;2024-02-26T04:36:04;5.47;;;5.07;;
15665;SDS011;20725;51.196;3.510;2024-02-26T04:38:33;5.27;;;4.87;;
15665;SDS011;20725;51.196;3.510;2024-02-26T04:41:00;5.17;;;4.77;;
15665;SDS011;20725;51.196;3.510;2024-02-26T04:43:27;5.30;;;4.80;;
15665;SDS011;20725;51.196;3.510;2024-02-26T04:45:54;8.67;;;4.93;;
15665;SDS011;20725;51.196;3.510;2024-02-26T04:48:22;8.47;;;5.30;;
15665;SDS011;20725;51.196;3.510;2024-02-26T04:50:49;6.70;;;5.20;;
15665;SDS011;20725;51.196;3.510;2024-02-26T04:53:15;7.43;;;4.50;;
15665;SDS011;20725;51.196;3.510;2024-02-26T04:55:44;5.80;;;5.07;;
15665;SDS011;20725;51.196;3.510;2024-02-26T04:58:11;7.77;;;4.80;;
15665;SDS011;20725;51.196;3.510;2024-02-26T05:00:38;5.30;;;4.90;;
15665;SDS011;20725;51.196;3.510;2024-02-26T05:03:05;5.00;;;4.70;;
15665;SDS011;20725;51.196;3.510;2024-02-26T05:05:38;7.17;;;4.87;;
15665;SDS011;20725;51.196;3.510;2024-02-26T05:08:05;5.97;;;5.10;;
15665;SDS011;20725;51.196;3.510;2024-02-26T05:10:33;5.63;;;5.20;;
15665;SDS011;20725;51.196;3.510;2024-02-26T05:13:05;6.70;;;6.00;;
15665;SDS011;20725;51.196;3.510;2024-02-26T05:15:33;6.63;;;6.00;;
15665;SDS011;20725;51.196;3.510;2024-02-26T05:18:00;6.03;;;5.37;;
15665;SDS011;20725;51.196;3.510;2024-02-26T05:20:27;6.63;;;6.03;;
15665;SDS011;20725;51.196;3.510;2024-02-26T05:22:55;6.73;;;5.93;;
15665;SDS011;20725;51.196;3.510;2024-02-26T05:25:23;5.67;;;5.27;;
15665;SDS011;20725;51.196;3.510;2024-02-26T05:27:51;6.23;;;5.57;;
15665;SDS011;20725;51.196;3.510;2024-02-26T05:30:19;4.83;;;4.47;;
15665;SDS011;20725;51.196;3.510;2024-02-26T05:32:46;6.00;;;5.30;;
15665;SDS011;20725;51.196;3.510;2024-02-26T05:35:14;5.10;;;4.70;;
15665;SDS011;20725;51.196;3.510;2024-02-26T05:37:41;6.73;;;4.83;;
15665;SDS011;20725;51.196;3.510;2024-02-26T05:40:08;6.10;;;4.93;;
15665;SDS011;20725;51.196;3.510;2024-02-26T05:42:35;7.70;;;5.67;;
15665;SDS011;20725;51.196;3.510;2024-02-26T05:45:03;6.67;;;6.00;;
15665;SDS011;20725;51.196;3.510;2024-02-26T05:47:33;7.57;;;6.73;;
15665;SDS011;20725;51.196;3.510;2024-02-26T05:50:00;8.67;;;7.87;;
15665;SDS011;20725;51.196;3.510;2024-02-26T05:52:27;8.33;;;7.53;;
15665;SDS011;20725;51.196;3.510;2024-02-26T05:54:56;8.33;;;7.63;;
15665;SDS011;20725;51.196;3.510;2024-02-26T05:57:24;9.13;;;8.23;;
15665;SDS011;20725;51.196;3.510;2024-02-26T05:59:51;8.07;;;7.37;;
15665;SDS011;20725;51.196;3.510;2024-02-26T06:02:18;8.43;;;7.73;;
15665;SDS011;20725;51.196;3.510;2024-02-26T06:04:46;9.17;;;8.20;;
15665;SDS011;20725;51.196;3.510;2024-02-26T06:07:14;9.10;;;8.27;;
15665;SDS011;20725;51.196;3.510;2024-02-26T06:09:41;9.43;;;8.60;;
15665;SDS011;20725;51.196;3.510;2024-02-26T06:12:08;9.23;;;8.23;;
15665;SDS011;20725;51.196;3.510;2024-02-26T06:14:35;9.30;;;8.50;;
15665;SDS011;20725;51.196;3.510;2024-02-26T06:17:03;9.20;;;8.33;;
15665;SDS011;20725;51.196;3.510;2024-02-26T06:19:30;9.10;;;8.30;;
15665;SDS011;20725;51.196;3.510;2024-02-26T06:21:58;11.30;;;8.93;;
15665;SDS011;20725;51.196;3.510;2024-02-26T06:24:26;10.80;;;8.97;;
15665;SDS011;20725;51.196;3.510;2024-02-26T06:26:53;9.97;;;8.97;;
15665;SDS011;20725;51.196;3.510;2024-02-26T06:29:20;9.63;;;8.80;;
15665;SDS011;20725;51.196;3.510;2024-02-26T06:31:47;9.33;;;8.53;;
15665;SDS011;20725;51.196;3.510;2024-02-26T06:34:15;9.43;;;8.60;;
15665;SDS011;20725;51.196;3.510;2024-02-26T06:36:43;9.83;;;8.90;;
15665;SDS011;20725;51.196;3.510;2024-02-26T06:39:11;8.93;;;8.20;;
15665;SDS011;20725;51.196;3.510;2024-02-26T06:41:40;8.60;;;7.70;;
15665;SDS011;20725;51.196;3.510;2024-02-26T06:44:07;8.63;;;7.73;;
15665;SDS011;20725;51.196;3.510;2024-02-26T06:46:34;8.70;;;7.90;;
15665;SDS011;20725;51.196;3.510;2024-02-26T06:49:01;8.17;;;7.37;;
15665;SDS011;20725;51.196;3.510;2024-02-26T06:51:29;8.50;;;7.67;;
15665;SDS011;20725;51.196;3.510;2024-02-26T06:53:56;6.97;;;6.37;;
15665;SDS011;20725;51.196;3.510;2024-02-26T06:56:24;7.93;;;7.23;;
15665;SDS011;20725;51.196;3.510;2024-02-26T06:58:52;6.87;;;6.30;;
15665;SDS011;20725;51.196;3.510;2024-02-26T07:01:19;6.73;;;6.23;;
15665;SDS011;20725;51.196;3.510;2024-02-26T07:03:46;7.33;;;6.77;;
15665;SDS011;20725;51.196;3.510;2024-02-26T07:06:13;7.20;;;6.47;;
15665;SDS011;20725;51.196;3.510;2024-02-26T07:08:41;7.20;;;5.93;;
15665;SDS011;20725;51.196;3.510;2024-02-26T07:11:08;6.97;;;6.40;;
15665;SDS011;20725;51.196;3.510;2024-02-26T07:13:37;6.47;;;5.87;;
15665;SDS011;20725;51.196;3.510;2024-02-26T07:16:04;6.43;;;5.93;;
15665;SDS011;20725;51.196;3.510;2024-02-26T07:18:32;8.17;;;6.07;;
15665;SDS011;20725;51.196;3.510;2024-02-26T07:21:01;6.53;;;5.93;;
15665;SDS011;20725;51.196;3.510;2024-02-26T07:23:28;8.37;;;6.13;;
15665;SDS011;20725;51.196;3.510;2024-02-26T07:25:56;6.50;;;5.90;;
15665;SDS011;20725;51.196;3.510;2024-02-26T07:28:23;5.83;;;5.30;;
15665;SDS011;20725;51.196;3.510;2024-02-26T07:30:52;5.40;;;5.00;;
15665;SDS011;20725;51.196;3.510;2024-02-26T07:33:19;5.40;;;4.97;;
15665;SDS011;20725;51.196;3.510;2024-02-26T07:35:46;5.03;;;4.63;;
15665;SDS011;20725;51.196;3.510;2024-02-26T07:38:14;5.87;;;5.30;;
15665;SDS011;20725;51.196;3.510;2024-02-26T07:40:41;5.80;;;5.03;;
15665;SDS011;20725;51.196;3.510;2024-02-26T07:43:08;6.30;;;5.40;;
15665;SDS011;20725;51.196;3.510;2024-02-26T07:45:35;5.67;;;4.53;;
15665;SDS011;20725;51.196;3.510;2024-02-26T07:48:04;6.40;;;5.07;;
15665;SDS011;20725;51.196;3.510;2024-02-26T07:50:32;5.90;;;5.40;;
15665;SDS011;20725;51.196;3.510;2024-02-26T07:52:59;5.90;;;4.80;;
15665;SDS011;20725;51.196;3.510;2024-02-26T07:55:26;5.90;;;5.30;;
15665;SDS011;20725;51.196;3.510;2024-02-26T07:57:53;5.40;;;5.00;;
15665;SDS011;20725;51.196;3.510;2024-02-26T08:00:21;5.50;;;5.00;;
15665;SDS011;20725;51.196;3.510;2024-02-26T08:02:48;5.80;;;5.30;;
15665;SDS011;20725;51.196;3.510;2024-02-26T08:05:16;5.17;;;4.77;;
15665;SDS011;20725;51.196;3.510;2024-02-26T08:07:44;6.80;;;4.83;;
15665;SDS011;20725;51.196;3.510;2024-02-26T08:10:12;5.63;;;4.40;;
15665;SDS011;20725;51.196;3.510;2024-02-26T08:12:39;5.07;;;4.67;;
15665;SDS011;20725;51.196;3.510;2024-02-26T08:15:07;8.13;;;5.30;;
15665;SDS011;20725;51.196;3.510;2024-02-26T08:17:36;5.60;;;5.10;;
15665;SDS011;20725;51.196;3.510;2024-02-26T08:20:04;5.00;;;4.60;;
15665;SDS011;20725;51.196;3.510;2024-02-26T08:22:32;5.27;;;4.87;;
15665;SDS011;20725;51.196;3.510;2024-02-26T08:25:00;5.70;;;5.20;;
15665;SDS011;20725;51.196;3.510;2024-02-26T08:27:31;5.10;;;4.57;;
15665;SDS011;20725;51.196;3.510;2024-02-26T08:29:59;5.80;;;5.30;;
15665;SDS011;20725;51.196;3.510;2024-02-26T08:32:26;5.17;;;4.77;;
15665;SDS011;20725;51.196;3.510;2024-02-26T08:34:54;5.57;;;5.17;;
15665;SDS011;20725;51.196;3.510;2024-02-26T08:37:21;5.60;;;5.07;;
15665;SDS011;20725;51.196;3.510;2024-02-26T08:39:49;5.27;;;4.77;;
15665;SDS011;20725;51.196;3.510;2024-02-26T08:42:17;6.37;;;5.70;;
15665;SDS011;20725;51.196;3.510;2024-02-26T08:44:44;5.73;;;5.13;;
15665;SDS011;20725;51.196;3.510;2024-02-26T08:47:11;6.37;;;5.10;;
15665;SDS011;20725;51.196;3.510;2024-02-26T08:49:42;6.43;;;5.83;;
15665;SDS011;20725;51.196;3.510;2024-02-26T08:52:09;5.70;;;5.20;;
15665;SDS011;20725;51.196;3.510;2024-02-26T08:54:36;6.97;;;6.30;;
15665;SDS011;20725;51.196;3.510;2024-02-26T08:57:05;6.83;;;6.23;;
15665;SDS011;20725;51.196;3.510;2024-02-26T08:59:32;7.70;;;7.00;;
15665;SDS011;20725;51.196;3.510;2024-02-26T09:01:59;8.83;;;7.93;;
15665;SDS011;20725;51.196;3.510;2024-02-26T09:04:26;8.87;;;8.07;;
15665;SDS011;20725;51.196;3.510;2024-02-26T09:06:53;9.47;;;8.23;;
15665;SDS011;20725;51.196;3.510;2024-02-26T09:09:21;9.20;;;8.30;;
15665;SDS011;20725;51.196;3.510;2024-02-26T09:11:50;10.13;;;8.27;;
15665;SDS011;20725;51.196;3.510;2024-02-26T09:14:18;9.90;;;8.90;;
15665;SDS011;20725;51.196;3.510;2024-02-26T09:16:46;9.60;;;8.50;;
15665;SDS011;20725;51.196;3.510;2024-02-26T09:19:13;11.30;;;9.60;;
15665;SDS011;20725;51.196;3.510;2024-02-26T09:21:42;12.93;;;10.07;;
15665;SDS011;20725;51.196;3.510;2024-02-26T09:24:09;12.00;;;10.07;;
15665;SDS011;20725;51.196;3.510;2024-02-26T09:26:36;12.07;;;10.57;;
15665;SDS011;20725;51.196;3.510;2024-02-26T09:29:04;14.00;;;11.10;;
15665;SDS011;20725;51.196;3.510;2024-02-26T09:31:34;12.33;;;10.67;;
15665;SDS011;20725;51.196;3.510;2024-02-26T09:34:02;13.93;;;11.87;;
15665;SDS011;20725;51.196;3.510;2024-02-26T09:36:29;11.00;;;9.67;;
15665;SDS011;20725;51.196;3.510;2024-02-26T09:38:57;12.10;;;10.53;;
15665;SDS011;20725;51.196;3.510;2024-02-26T09:41:24;15.43;;;11.17;;
15665;SDS011;20725;51.196;3.510;2024-02-26T09:43:55;12.90;;;10.60;;
15665;SDS011;20725;51.196;3.510;2024-02-26T09:46:24;12.47;;;11.17;;
15665;SDS011;20725;51.196;3.510;2024-02-26T09:48:53;16.00;;;11.60;;
15665;SDS011;20725;51.196;3.510;2024-02-26T09:51:21;13.63;;;11.70;;
15665;SDS011;20725;51.196;3.510;2024-02-26T09:53:51;15.57;;;12.33;;
15665;SDS011;20725;51.196;3.510;2024-02-26T09:56:18;14.60;;;11.50;;
15665;SDS011;20725;51.196;3.510;2024-02-26T09:58:45;14.03;;;12.63;;
15665;SDS011;20725;51.196;3.510;2024-02-26T10:01:17;16.57;;;12.43;;
15665;SDS011;20725;51.196;3.510;2024-02-26T10:03:45;17.23;;;14.17;;
15665;SDS011;20725;51.196;3.510;2024-02-26T10:06:16;17.73;;;13.70;;
15665;SDS011;20725;51.196;3.510;2024-02-26T10:08:43;16.77;;;13.87;;
15665;SDS011;20725;51.196;3.510;2024-02-26T10:11:11;18.53;;;14.30;;
15665;SDS011;20725;51.196;3.510;2024-02-26T10:13:39;16.90;;;13.90;;
15665;SDS011;20725;51.196;3.510;2024-02-26T10:16:07;17.83;;;14.67;;
15665;SDS011;20725;51.196;3.510;2024-02-26T10:18:47;15.97;;;14.27;;
15665;SDS011;20725;51.196;3.510;2024-02-26T10:21:17;16.03;;;14.33;;
15665;SDS011;20725;51.196;3.510;2024-02-26T10:23:44;14.80;;;13.17;;
15665;SDS011;20725;51.196;3.510;2024-02-26T10:26:12;16.13;;;13.70;;
15665;SDS011;20725;51.196;3.510;2024-02-26T10:28:42;15.07;;;13.50;;
15665;SDS011;20725;51.196;3.510;2024-02-26T10:31:10;17.03;;;13.57;;
15665;SDS011;20725;51.196;3.510;2024-02-26T10:33:38;15.50;;;13.90;;
15665;SDS011;20725;51.196;3.510;2024-02-26T10:36:06;16.50;;;13.97;;
15665;SDS011;20725;51.196;3.510;2024-02-26T10:38:35;14.00;;;12.60;;
15665;SDS011;20725;51.196;3.510;2024-02-26T10:41:03;14.20;;;12.40;;
15665;SDS011;20725;51.196;3.510;2024-02-26T10:43:30;15.27;;;12.17;;
15665;SDS011;20725;51.196;3.510;2024-02-26T10:45:57;14.13;;;12.77;;
15665;SDS011;20725;51.196;3.510;2024-02-26T10:48:25;14.00;;;12.57;;
15665;SDS011;20725;51.196;3.510;2024-02-26T10:50:52;13.47;;;12.07;;
15665;SDS011;20725;51.196;3.510;2024-02-26T10:53:21;12.57;;;11.37;;
15665;SDS011;20725;51.196;3.510;2024-02-26T10:55:52;13.03;;;11.67;;
15665;SDS011;20725;51.196;3.510;2024-02-26T10:58:19;12.10;;;10.90;;
15665;SDS011;20725;51.196;3.510;2024-02-26T11:00:47;11.30;;;10.17;;
15665;SDS011;20725;51.196;3.510;2024-02-26T11:03:15;11.60;;;10.50;;
15665;SDS011;20725;51.196;3.510;2024-02-26T11:05:45;12.50;;;11.30;;
15665;SDS011;20725;51.196;3.510;2024-02-26T11:08:13;10.87;;;9.90;;
15665;SDS011;20725;51.196;3.510;2024-02-26T11:10:41;10.43;;;9.50;;
15665;SDS011;20725;51.196;3.510;2024-02-26T11:13:10;15.63;;;8.80;;
15665;SDS011;20725;51.196;3.510;2024-02-26T11:15:39;10.23;;;9.20;;
15665;SDS011;20725;51.196;3.510;2024-02-26T11:18:07;10.03;;;9.13;;
15665;SDS011;20725;51.196;3.510;2024-02-26T11:20:34;8.30;;;7.50;;
15665;SDS011;20725;51.196;3.510;2024-02-26T11:23:05;8.87;;;8.07;;
15665;SDS011;20725;51.196;3.510;2024-02-26T11:25:33;8.77;;;7.97;;
15665;SDS011;20725;51.196;3.510;2024-02-26T11:28:01;8.90;;;8.10;;
15665;SDS011;20725;51.196;3.510;2024-02-26T11:30:32;7.90;;;7.10;;
15665;SDS011;20725;51.196;3.510;2024-02-26T11:33:03;8.20;;;7.40;;
15665;SDS011;20725;51.196;3.510;2024-02-26T11:35:31;10.73;;;7.60;;
15665;SDS011;20725;51.196;3.510;2024-02-26T11:37:58;6.83;;;6.23;;
15665;SDS011;20725;51.196;3.510;2024-02-26T11:40:26;7.00;;;6.40;;
15665;SDS011;20725;51.196;3.510;2024-02-26T11:42:54;8.43;;;6.77;;
15665;SDS011;20725;51.196;3.510;2024-02-26T11:48:12;6.83;;;6.23;;
15665;SDS011;20725;51.196;3.510;2024-02-26T11:50:39;6.23;;;5.73;;
15665;SDS011;20725;51.196;3.510;2024-02-26T11:53:19;6.33;;;5.73;;
15665;SDS011;20725;51.196;3.510;2024-02-26T11:55:46;7.43;;;5.50;;
15665;SDS011;20725;51.196;3.510;2024-02-26T11:58:14;6.50;;;6.00;;
15665;SDS011;20725;51.196;3.510;2024-02-26T12:00:41;6.30;;;5.70;;
15665;SDS011;20725;51.196;3.510;2024-02-26T12:03:09;6.23;;;5.60;;
15665;SDS011;20725;51.196;3.510;2024-02-26T12:05:38;6.10;;;5.50;;
15665;SDS011;20725;51.196;3.510;2024-02-26T12:08:07;6.73;;;5.83;;
15665;SDS011;20725;51.196;3.510;2024-02-26T12:10:35;6.40;;;5.90;;
15665;SDS011;20725;51.196;3.510;2024-02-26T12:13:04;6.80;;;5.40;;
15665;SDS011;20725;51.196;3.510;2024-02-26T12:15:32;5.83;;;5.33;;
15665;SDS011;20725;51.196;3.510;2024-02-26T12:18:01;6.00;;;5.50;;
15665;SDS011;20725;51.196;3.510;2024-02-26T12:20:28;5.50;;;5.00;;
15665;SDS011;20725;51.196;3.510;2024-02-26T12:22:57;5.20;;;4.70;;
15665;SDS011;20725;51.196;3.510;2024-02-26T12:25:25;5.77;;;5.27;;
15665;SDS011;20725;51.196;3.510;2024-02-26T12:27:53;5.27;;;4.77;;
15665;SDS011;20725;51.196;3.510;2024-02-26T12:30:20;5.40;;;4.97;;
15665;SDS011;20725;51.196;3.510;2024-02-26T12:32:48;4.53;;;4.23;;
15665;SDS011;20725;51.196;3.510;2024-02-26T12:35:15;4.57;;;4.27;;
15665;SDS011;20725;51.196;3.510;2024-02-26T12:37:43;4.80;;;4.33;;
15665;SDS011;20725;51.196;3.510;2024-02-26T12:40:12;4.87;;;4.30;;
15665;SDS011;20725;51.196;3.510;2024-02-26T12:42:39;5.03;;;4.63;;
15665;SDS011;20725;51.196;3.510;2024-02-26T12:45:07;4.90;;;4.47;;
15665;SDS011;20725;51.196;3.510;2024-02-26T12:47:35;4.87;;;4.47;;
15665;SDS011;20725;51.196;3.510;2024-02-26T12:50:03;5.10;;;4.70;;
15665;SDS011;20725;51.196;3.510;2024-02-26T12:52:31;5.30;;;4.80;;
15665;SDS011;20725;51.196;3.510;2024-02-26T12:54:58;5.20;;;4.80;;
15665;SDS011;20725;51.196;3.510;2024-02-26T12:57:27;5.27;;;4.37;;
15665;SDS011;20725;51.196;3.510;2024-02-26T12:59:55;4.73;;;4.23;;
15665;SDS011;20725;51.196;3.510;2024-02-26T13:02:23;4.63;;;4.23;;
15665;SDS011;20725;51.196;3.510;2024-02-26T13:04:50;5.10;;;4.53;;
15665;SDS011;20725;51.196;3.510;2024-02-26T13:07:18;4.40;;;4.10;;
15665;SDS011;20725;51.196;3.510;2024-02-26T13:09:45;11.83;;;4.33;;
15665;SDS011;20725;51.196;3.510;2024-02-26T13:12:12;4.47;;;4.07;;
15665;SDS011;20725;51.196;3.510;2024-02-26T13:14:41;4.47;;;4.07;;
15665;SDS011;20725;51.196;3.510;2024-02-26T13:17:08;4.80;;;4.40;;
15665;SDS011;20725;51.196;3.510;2024-02-26T13:19:35;4.40;;;4.00;;
15665;SDS011;20725;51.196;3.510;2024-02-26T13:22:03;4.70;;;4.30;;
15665;SDS011;20725;51.196;3.510;2024-02-26T13:24:31;6.17;;;4.23;;
15665;SDS011;20725;51.196;3.510;2024-02-26T13:26:58;4.70;;;4.27;;
15665;SDS011;20725;51.196;3.510;2024-02-26T13:29:26;4.50;;;4.13;;
15665;SDS011;20725;51.196;3.510;2024-02-26T13:31:55;4.43;;;4.03;;
15665;SDS011;20725;51.196;3.510;2024-02-26T13:34:22;5.03;;;4.30;;
15665;SDS011;20725;51.196;3.510;2024-02-26T13:36:51;4.30;;;4.00;;
15665;SDS011;20725;51.196;3.510;2024-02-26T13:39:21;5.40;;;4.23;;
15665;SDS011;20725;51.196;3.510;2024-02-26T13:41:49;4.87;;;4.23;;
15665;SDS011;20725;51.196;3.510;2024-02-26T13:44:16;5.27;;;4.23;;
15665;SDS011;20725;51.196;3.510;2024-02-26T13:46:44;4.80;;;4.40;;
15665;SDS011;20725;51.196;3.510;2024-02-26T13:49:12;4.63;;;4.23;;
15665;SDS011;20725;51.196;3.510;2024-02-26T13:51:40;4.60;;;4.20;;
15665;SDS011;20725;51.196;3.510;2024-02-26T13:54:07;4.57;;;4.17;;
15665;SDS011;20725;51.196;3.510;2024-02-26T13:56:35;5.00;;;4.60;;
15665;SDS011;20725;51.196;3.510;2024-02-26T13:59:03;4.90;;;4.40;;
15665;SDS011;20725;51.196;3.510;2024-02-26T14:01:30;5.50;;;4.60;;
15665;SDS011;20725;51.196;3.510;2024-02-26T14:03:58;4.63;;;4.33;;
15665;SDS011;20725;51.196;3.510;2024-02-26T14:06:28;4.90;;;4.53;;
15665;SDS011;20725;51.196;3.510;2024-02-26T14:08:57;5.53;;;5.13;;
15665;SDS011;20725;51.196;3.510;2024-02-26T14:11:24;6.00;;;5.13;;
15665;SDS011;20725;51.196;3.510;2024-02-26T14:13:54;5.13;;;4.63;;
15665;SDS011;20725;51.196;3.510;2024-02-26T14:16:21;5.60;;;5.10;;
15665;SDS011;20725;51.196;3.510;2024-02-26T14:18:48;5.97;;;5.47;;
15665;SDS011;20725;51.196;3.510;2024-02-26T14:21:16;6.00;;;5.50;;
15665;SDS011;20725;51.196;3.510;2024-02-26T14:23:44;6.17;;;5.50;;
15665;SDS011;20725;51.196;3.510;2024-02-26T14:26:12;6.10;;;5.40;;
15665;SDS011;20725;51.196;3.510;2024-02-26T14:28:39;6.10;;;5.50;;
15665;SDS011;20725;51.196;3.510;2024-02-26T14:31:06;6.40;;;5.80;;
15665;SDS011;20725;51.196;3.510;2024-02-26T14:33:37;5.33;;;4.87;;
15665;SDS011;20725;51.196;3.510;2024-02-26T14:36:06;6.00;;;5.40;;
15665;SDS011;20725;51.196;3.510;2024-02-26T14:38:33;8.33;;;5.83;;
15665;SDS011;20725;51.196;3.510;2024-02-26T14:41:02;7.10;;;6.50;;
15665;SDS011;20725;51.196;3.510;2024-02-26T14:43:30;6.30;;;5.77;;
15665;SDS011;20725;51.196;3.510;2024-02-26T14:45:57;6.13;;;5.63;;
15665;SDS011;20725;51.196;3.510;2024-02-26T14:48:25;7.87;;;6.07;;